LHA302 KBFI-CYXC
Flight info
| Callsign | LHA302 |
|---|---|
| Flight time | 0h 45m |
| Altitude | 39000 |
| Route | SEA J505 YXC |
| Aircraft | A319/M-SDE1E2FGIJ1RWYZ/S |
Departure
| Time | 2026-04-21 15:19 |
|---|---|
| Airport | King County International Airport - Boeing Field (KBFI) |
Arrival
| Time | 2026-04-21 16:05 |
|---|---|
| Airport | Cranbrook/Canadian Rockies International Airport (CYXC) |
| Time | Latitude | Longitude | Altitude | Speed | Heading |
|---|---|---|---|---|---|
| 2026-04-21 15:05 | 47.53561 | -122.30283 | 24 ft | 0 kts | 111° |
| 2026-04-21 15:14 | 47.53561 | -122.30284 | 24 ft | 1 kts | 111° |
| 2026-04-21 15:14 | 47.53567 | -122.30316 | 28 ft | 4 kts | 78° |
| 2026-04-21 15:15 | 47.53557 | -122.30348 | 27 ft | 2 kts | 52° |
| 2026-04-21 15:15 | 47.53557 | -122.30350 | 26 ft | 0 kts | 52° |
| 2026-04-21 15:16 | 47.53559 | -122.30347 | 27 ft | 1 kts | 41° |
| 2026-04-21 15:17 | 47.53567 | -122.30362 | 27 ft | 4 kts | 308° |
| 2026-04-21 15:17 | 47.53594 | -122.30458 | 23 ft | 15 kts | 305° |
| 2026-04-21 15:17 | 47.53692 | -122.30562 | 25 ft | 19 kts | 329° |
| 2026-04-21 15:17 | 47.53819 | -122.30670 | 28 ft | 24 kts | 330° |
| 2026-04-21 15:18 | 47.53973 | -122.30797 | 27 ft | 19 kts | 331° |
| 2026-04-21 15:18 | 47.54104 | -122.30917 | 26 ft | 15 kts | 319° |
| 2026-04-21 15:18 | 47.54085 | -122.31015 | 26 ft | 12 kts | 250° |
| 2026-04-21 15:18 | 47.54039 | -122.31091 | 27 ft | 8 kts | 162° |
| 2026-04-21 15:19 | 47.53954 | -122.31051 | 27 ft | 24 kts | 153° |
| 2026-04-21 15:19 | 47.53637 | -122.30783 | 23 ft | 88 kts | 150° |
| 2026-04-21 15:19 | 47.52909 | -122.30174 | 28 ft | 150 kts | 152° |
| 2026-04-21 15:19 | 47.51977 | -122.29433 | 662 ft | 153 kts | 153° |
| 2026-04-21 15:20 | 47.51029 | -122.28716 | 1401 ft | 157 kts | 156° |
| 2026-04-21 15:20 | 47.49998 | -122.28000 | 2033 ft | 171 kts | 159° |
| 2026-04-21 15:20 | 47.48872 | -122.27332 | 2735 ft | 177 kts | 162° |
| 2026-04-21 15:20 | 47.47697 | -122.26723 | 3369 ft | 185 kts | 163° |
| 2026-04-21 15:21 | 47.46478 | -122.25759 | 3759 ft | 215 kts | 135° |
| 2026-04-21 15:21 | 47.45867 | -122.23658 | 4239 ft | 246 kts | 94° |
| 2026-04-21 15:21 | 47.46238 | -122.21085 | 4949 ft | 266 kts | 67° |
| 2026-04-21 15:21 | 47.47095 | -122.18647 | 6100 ft | 268 kts | 59° |
| 2026-04-21 15:22 | 47.48090 | -122.16308 | 7200 ft | 270 kts | 58° |
| 2026-04-21 15:22 | 47.49123 | -122.13962 | 8271 ft | 273 kts | 60° |
| 2026-04-21 15:22 | 47.50151 | -122.11583 | 9338 ft | 276 kts | 62° |
| 2026-04-21 15:22 | 47.51167 | -122.09146 | 10261 ft | 284 kts | 64° |
| 2026-04-21 15:23 | 47.52220 | -122.06527 | 10683 ft | 308 kts | 64° |
| 2026-04-21 15:23 | 47.53337 | -122.03685 | 10970 ft | 331 kts | 64° |
| 2026-04-21 15:23 | 47.54527 | -122.00624 | 11197 ft | 355 kts | 64° |
| 2026-04-21 15:23 | 47.55791 | -121.97351 | 11336 ft | 377 kts | 64° |
| 2026-04-21 15:24 | 47.57125 | -121.93900 | 11597 ft | 393 kts | 64° |
| 2026-04-21 15:24 | 47.58499 | -121.90359 | 12163 ft | 400 kts | 64° |
| 2026-04-21 15:24 | 47.59894 | -121.86767 | 12792 ft | 405 kts | 64° |
| 2026-04-21 15:24 | 47.61306 | -121.83122 | 13416 ft | 410 kts | 65° |
| 2026-04-21 15:25 | 47.62732 | -121.79433 | 13994 ft | 415 kts | 65° |
| 2026-04-21 15:25 | 47.64178 | -121.75689 | 14494 ft | 421 kts | 64° |
| 2026-04-21 15:25 | 47.65646 | -121.71886 | 14941 ft | 428 kts | 64° |
| 2026-04-21 15:25 | 47.67130 | -121.68027 | 15452 ft | 433 kts | 64° |
| 2026-04-21 15:26 | 47.68630 | -121.64121 | 15954 ft | 438 kts | 64° |
| 2026-04-21 15:26 | 47.70139 | -121.60180 | 16360 ft | 441 kts | 64° |
| 2026-04-21 15:26 | 47.71665 | -121.56196 | 16847 ft | 446 kts | 64° |
| 2026-04-21 15:26 | 47.73201 | -121.52180 | 17260 ft | 449 kts | 64° |
| 2026-04-21 15:27 | 47.74745 | -121.48128 | 17668 ft | 453 kts | 64° |
| 2026-04-21 15:27 | 47.76308 | -121.44024 | 18091 ft | 457 kts | 64° |
| 2026-04-21 15:27 | 47.77867 | -121.39887 | 18498 ft | 461 kts | 64° |
| 2026-04-21 15:27 | 47.79420 | -121.35707 | 18919 ft | 462 kts | 64° |
| 2026-04-21 15:28 | 47.80966 | -121.31501 | 19352 ft | 464 kts | 65° |
| 2026-04-21 15:28 | 47.82509 | -121.27278 | 19819 ft | 465 kts | 64° |
| 2026-04-21 15:28 | 47.84057 | -121.23044 | 20262 ft | 466 kts | 64° |
| 2026-04-21 15:28 | 47.85609 | -121.18803 | 20641 ft | 467 kts | 64° |
| 2026-04-21 15:29 | 47.87168 | -121.14548 | 21019 ft | 468 kts | 64° |
| 2026-04-21 15:29 | 47.88732 | -121.10282 | 21353 ft | 469 kts | 64° |
| 2026-04-21 15:29 | 47.90294 | -121.06008 | 21626 ft | 471 kts | 64° |
| 2026-04-21 15:29 | 47.91867 | -121.01708 | 21931 ft | 473 kts | 64° |
| 2026-04-21 15:30 | 47.93443 | -120.97398 | 22264 ft | 474 kts | 64° |
| 2026-04-21 15:30 | 47.95016 | -120.93071 | 22606 ft | 475 kts | 64° |
| 2026-04-21 15:30 | 47.96569 | -120.88787 | 22926 ft | 476 kts | 64° |
| 2026-04-21 15:30 | 47.98145 | -120.84439 | 23232 ft | 477 kts | 64° |
| 2026-04-21 15:31 | 47.99724 | -120.80072 | 23515 ft | 478 kts | 64° |
| 2026-04-21 15:31 | 48.01306 | -120.75696 | 23717 ft | 481 kts | 65° |
| 2026-04-21 15:31 | 48.02897 | -120.71285 | 23921 ft | 483 kts | 64° |
| 2026-04-21 15:31 | 48.04491 | -120.66853 | 24110 ft | 486 kts | 65° |
| 2026-04-21 15:32 | 48.06094 | -120.62392 | 24300 ft | 488 kts | 65° |
| 2026-04-21 15:32 | 48.07703 | -120.57909 | 24504 ft | 491 kts | 65° |
| 2026-04-21 15:32 | 48.09320 | -120.53413 | 24769 ft | 491 kts | 65° |
| 2026-04-21 15:32 | 48.10937 | -120.48914 | 25018 ft | 492 kts | 65° |
| 2026-04-21 15:33 | 48.12557 | -120.44396 | 25244 ft | 493 kts | 65° |
| 2026-04-21 15:33 | 48.14173 | -120.39858 | 25474 ft | 494 kts | 66° |
| 2026-04-21 15:33 | 48.15789 | -120.35307 | 25729 ft | 496 kts | 66° |
| 2026-04-21 15:33 | 48.17406 | -120.30747 | 26009 ft | 497 kts | 66° |
| 2026-04-21 15:34 | 48.19032 | -120.26153 | 26285 ft | 499 kts | 66° |
| 2026-04-21 15:34 | 48.20660 | -120.21554 | 26574 ft | 500 kts | 66° |
| 2026-04-21 15:34 | 48.22293 | -120.16943 | 26913 ft | 501 kts | 66° |
| 2026-04-21 15:34 | 48.23929 | -120.12320 | 27215 ft | 502 kts | 66° |
| 2026-04-21 15:35 | 48.25566 | -120.07682 | 27513 ft | 504 kts | 66° |
| 2026-04-21 15:35 | 48.27199 | -120.03029 | 27786 ft | 505 kts | 66° |
| 2026-04-21 15:35 | 48.28838 | -119.98342 | 28028 ft | 509 kts | 66° |
| 2026-04-21 15:35 | 48.30486 | -119.93629 | 28353 ft | 510 kts | 66° |
| 2026-04-21 15:36 | 48.32135 | -119.88910 | 28700 ft | 511 kts | 67° |
| 2026-04-21 15:36 | 48.33791 | -119.84176 | 29061 ft | 512 kts | 67° |
| 2026-04-21 15:36 | 48.35447 | -119.79425 | 29399 ft | 514 kts | 67° |
| 2026-04-21 15:36 | 48.37107 | -119.74660 | 29751 ft | 515 kts | 67° |
| 2026-04-21 15:37 | 48.38770 | -119.69885 | 30102 ft | 516 kts | 67° |
| 2026-04-21 15:37 | 48.40436 | -119.65092 | 30394 ft | 517 kts | 67° |
| 2026-04-21 15:37 | 48.42102 | -119.60288 | 30734 ft | 518 kts | 67° |
| 2026-04-21 15:37 | 48.43765 | -119.55482 | 31112 ft | 517 kts | 67° |
| 2026-04-21 15:38 | 48.45421 | -119.50682 | 31483 ft | 517 kts | 68° |
| 2026-04-21 15:38 | 48.47074 | -119.45877 | 31863 ft | 517 kts | 68° |
| 2026-04-21 15:38 | 48.48724 | -119.41062 | 32284 ft | 516 kts | 68° |
| 2026-04-21 15:38 | 48.50366 | -119.36263 | 32676 ft | 516 kts | 68° |
| 2026-04-21 15:39 | 48.52012 | -119.31447 | 33040 ft | 516 kts | 68° |
| 2026-04-21 15:39 | 48.53654 | -119.26638 | 33454 ft | 516 kts | 68° |
| 2026-04-21 15:39 | 48.55298 | -119.21818 | 33899 ft | 516 kts | 68° |
| 2026-04-21 15:39 | 48.56936 | -119.17004 | 34301 ft | 516 kts | 68° |
| 2026-04-21 15:40 | 48.58553 | -119.12248 | 34710 ft | 515 kts | 68° |
| 2026-04-21 15:40 | 48.60182 | -119.07443 | 35138 ft | 514 kts | 68° |
| 2026-04-21 15:40 | 48.61806 | -119.02639 | 35598 ft | 513 kts | 68° |
| 2026-04-21 15:40 | 48.63424 | -118.97847 | 36019 ft | 512 kts | 68° |
| 2026-04-21 15:41 | 48.65039 | -118.93055 | 36416 ft | 512 kts | 67° |
| 2026-04-21 15:41 | 48.66675 | -118.88194 | 36815 ft | 511 kts | 67° |
| 2026-04-21 15:41 | 48.68261 | -118.83469 | 37232 ft | 511 kts | 68° |
| 2026-04-21 15:41 | 48.69865 | -118.78680 | 37642 ft | 510 kts | 68° |
| 2026-04-21 15:42 | 48.71467 | -118.73895 | 38041 ft | 509 kts | 68° |
| 2026-04-21 15:42 | 48.73066 | -118.69110 | 38431 ft | 508 kts | 68° |
| 2026-04-21 15:42 | 48.74658 | -118.64331 | 38717 ft | 508 kts | 68° |
| 2026-04-21 15:42 | 48.76247 | -118.59549 | 38808 ft | 508 kts | 67° |
| 2026-04-21 15:43 | 48.79423 | -118.49975 | 38838 ft | 508 kts | 67° |
| 2026-04-21 15:43 | 48.82591 | -118.40399 | 38837 ft | 508 kts | 67° |
| 2026-04-21 15:44 | 48.85745 | -118.30816 | 38841 ft | 508 kts | 67° |
| 2026-04-21 15:44 | 48.88897 | -118.21203 | 38849 ft | 509 kts | 67° |
| 2026-04-21 15:45 | 48.92045 | -118.11575 | 38849 ft | 509 kts | 67° |
| 2026-04-21 15:45 | 48.95186 | -118.01926 | 38852 ft | 509 kts | 67° |
| 2026-04-21 15:46 | 48.98309 | -117.92261 | 38857 ft | 509 kts | 67° |
| 2026-04-21 15:46 | 49.01422 | -117.82573 | 38850 ft | 509 kts | 67° |
| 2026-04-21 15:47 | 49.04533 | -117.72872 | 38848 ft | 510 kts | 67° |
| 2026-04-21 15:47 | 49.07640 | -117.63144 | 38855 ft | 510 kts | 67° |
| 2026-04-21 15:48 | 49.10738 | -117.53405 | 38869 ft | 511 kts | 67° |
| 2026-04-21 15:48 | 49.13313 | -117.45291 | 38866 ft | 511 kts | 66° |
| 2026-04-21 15:49 | 49.16403 | -117.35510 | 38873 ft | 511 kts | 66° |
| 2026-04-21 15:49 | 49.19475 | -117.25720 | 38873 ft | 511 kts | 67° |
| 2026-04-21 15:50 | 49.23048 | -117.14321 | 38882 ft | 512 kts | 67° |
| 2026-04-21 15:50 | 49.25621 | -117.06086 | 38896 ft | 511 kts | 67° |
| 2026-04-21 15:51 | 49.28675 | -116.96268 | 38578 ft | 509 kts | 67° |
| 2026-04-21 15:51 | 49.30197 | -116.91350 | 37343 ft | 513 kts | 67° |
| 2026-04-21 15:51 | 49.31729 | -116.86384 | 36111 ft | 516 kts | 67° |
| 2026-04-21 15:52 | 49.33263 | -116.81402 | 34865 ft | 519 kts | 67° |
| 2026-04-21 15:52 | 49.34807 | -116.76390 | 33511 ft | 521 kts | 67° |
| 2026-04-21 15:52 | 49.36355 | -116.71375 | 32408 ft | 517 kts | 66° |
| 2026-04-21 15:52 | 49.37896 | -116.66383 | 31301 ft | 520 kts | 66° |
| 2026-04-21 15:53 | 49.39450 | -116.61338 | 30215 ft | 525 kts | 66° |
| 2026-04-21 15:53 | 49.40992 | -116.56322 | 29149 ft | 525 kts | 66° |
| 2026-04-21 15:53 | 49.42548 | -116.51253 | 27637 ft | 525 kts | 66° |
| 2026-04-21 15:53 | 49.44097 | -116.46197 | 26217 ft | 520 kts | 65° |
| 2026-04-21 15:54 | 49.45629 | -116.41200 | 24687 ft | 515 kts | 65° |
| 2026-04-21 15:54 | 49.47144 | -116.36241 | 23348 ft | 507 kts | 64° |
| 2026-04-21 15:54 | 49.48612 | -116.31419 | 21937 ft | 490 kts | 64° |
| 2026-04-21 15:54 | 49.50032 | -116.26744 | 20896 ft | 477 kts | 65° |
| 2026-04-21 15:55 | 49.51422 | -116.22140 | 19808 ft | 472 kts | 65° |
| 2026-04-21 15:55 | 49.52804 | -116.17581 | 18750 ft | 468 kts | 64° |
| 2026-04-21 15:55 | 49.54473 | -116.13307 | 17621 ft | 464 kts | 53° |
| 2026-04-21 15:55 | 49.56566 | -116.09591 | 16558 ft | 455 kts | 43° |
| 2026-04-21 15:56 | 49.58984 | -116.06521 | 15522 ft | 446 kts | 33° |
| 2026-04-21 15:56 | 49.61638 | -116.04155 | 14603 ft | 435 kts | 24° |
| 2026-04-21 15:56 | 49.64348 | -116.02128 | 13652 ft | 431 kts | 23° |
| 2026-04-21 15:56 | 49.67026 | -116.00114 | 12691 ft | 425 kts | 24° |
| 2026-04-21 15:57 | 49.69660 | -115.98124 | 11826 ft | 417 kts | 24° |
| 2026-04-21 15:57 | 49.72229 | -115.96174 | 10863 ft | 403 kts | 24° |
| 2026-04-21 15:57 | 49.74682 | -115.94305 | 9907 ft | 383 kts | 25° |
| 2026-04-21 15:57 | 49.77022 | -115.92521 | 8804 ft | 369 kts | 25° |
| 2026-04-21 15:58 | 49.79291 | -115.90794 | 7676 ft | 358 kts | 25° |
| 2026-04-21 15:58 | 49.81500 | -115.89096 | 6528 ft | 350 kts | 28° |
| 2026-04-21 15:58 | 49.83358 | -115.86763 | 5577 ft | 341 kts | 53° |
| 2026-04-21 15:58 | 49.84308 | -115.83636 | 5465 ft | 306 kts | 80° |
| 2026-04-21 15:59 | 49.84120 | -115.80588 | 5479 ft | 272 kts | 115° |
| 2026-04-21 15:59 | 49.82986 | -115.78513 | 5474 ft | 243 kts | 152° |
| 2026-04-21 15:59 | 49.81454 | -115.78062 | 5482 ft | 215 kts | 191° |
| 2026-04-21 15:59 | 49.80113 | -115.78630 | 5475 ft | 186 kts | 189° |
| 2026-04-21 16:00 | 49.78922 | -115.78628 | 5494 ft | 157 kts | 179° |
| 2026-04-21 16:00 | 49.77915 | -115.78594 | 5489 ft | 135 kts | 179° |
| 2026-04-21 16:00 | 49.76992 | -115.78568 | 5491 ft | 130 kts | 180° |
| 2026-04-21 16:00 | 49.76085 | -115.78545 | 5480 ft | 130 kts | 180° |
| 2026-04-21 16:01 | 49.75365 | -115.78527 | 5519 ft | 130 kts | 180° |
| 2026-04-21 16:01 | 49.74458 | -115.78506 | 5446 ft | 130 kts | 179° |
| 2026-04-21 16:01 | 49.73559 | -115.78485 | 5320 ft | 129 kts | 179° |
| 2026-04-21 16:01 | 49.72662 | -115.78465 | 5174 ft | 128 kts | 179° |
| 2026-04-21 16:02 | 49.71780 | -115.78444 | 5013 ft | 128 kts | 179° |
| 2026-04-21 16:02 | 49.70875 | -115.78424 | 4831 ft | 129 kts | 180° |
| 2026-04-21 16:02 | 49.69979 | -115.78403 | 4651 ft | 129 kts | 180° |
| 2026-04-21 16:02 | 49.69114 | -115.78384 | 4468 ft | 129 kts | 180° |
| 2026-04-21 16:03 | 49.68214 | -115.78367 | 4266 ft | 129 kts | 180° |
| 2026-04-21 16:03 | 49.67326 | -115.78346 | 4104 ft | 129 kts | 181° |
| 2026-04-21 16:03 | 49.66427 | -115.78325 | 3926 ft | 129 kts | 181° |
| 2026-04-21 16:03 | 49.65532 | -115.78303 | 3746 ft | 128 kts | 181° |
| 2026-04-21 16:04 | 49.64641 | -115.78288 | 3574 ft | 128 kts | 180° |
| 2026-04-21 16:04 | 49.63756 | -115.78265 | 3392 ft | 127 kts | 180° |
| 2026-04-21 16:04 | 49.62875 | -115.78247 | 3227 ft | 126 kts | 180° |
| 2026-04-21 16:04 | 49.61999 | -115.78228 | 3053 ft | 124 kts | 180° |
| 2026-04-21 16:05 | 49.61313 | -115.78215 | 3056 ft | 60 kts | 179° |
| 2026-04-21 16:05 | 49.61007 | -115.78210 | 3066 ft | 36 kts | 179° |
| 2026-04-21 16:05 | 49.60833 | -115.78214 | 3069 ft | 9 kts | 201° |
| 2026-04-21 16:05 | 49.60850 | -115.78313 | 3069 ft | 15 kts | 309° |
| 2026-04-21 16:06 | 49.60935 | -115.78441 | 3067 ft | 19 kts | 316° |
| 2026-04-21 16:06 | 49.61068 | -115.78496 | 3063 ft | 22 kts | 1° |
| 2026-04-21 16:06 | 49.61238 | -115.78493 | 3059 ft | 26 kts | 357° |
| 2026-04-21 16:06 | 49.61374 | -115.78526 | 3058 ft | 15 kts | 312° |
| 2026-04-21 16:07 | 49.61420 | -115.78593 | 3055 ft | 0 kts | 312° |
| 2026-04-21 16:07 | 49.61401 | -115.78523 | 3057 ft | 0 kts | 276° |